Time;durP1;ratioP1;P1;durP2;ratioP2;P2;SDS_P1;SDS_P2;PMS_P1;PMS_P2;Temp;Humidity;BMP_temperature;BMP_pressure;BME280_temperature;BME280_humidity;BME280_pressure;Samples;Min_cycle;Max_cycle;Signal;HPM_P1;HPM_P2
2022/10/16 00:01:16;;;;;;;481.85;73.10;;;12.60;99.90;;;;;;4978451;28;20513;-73
2022/10/16 00:03:43;;;;;;;396.10;68.35;;;12.70;99.90;;;;;;4978452;28;20023;-73
2022/10/16 00:06:09;;;;;;;368.98;66.88;;;12.70;99.90;;;;;;4978051;28;20038;-73
2022/10/16 00:08:36;;;;;;;388.02;68.95;;;12.60;99.90;;;;;;4978264;28;20035;-73
2022/10/16 00:11:07;;;;;;;272.95;69.72;;;12.60;99.90;;;;;;4978026;28;20055;-73
2022/10/16 00:13:35;;;;;;;337.15;67.50;;;12.50;99.90;;;;;;4978428;28;20110;-73
2022/10/16 00:16:01;;;;;;;444.52;72.95;;;12.60;99.90;;;;;;4960789;28;20031;-73
2022/10/16 00:18:28;;;;;;;435.85;76.80;;;12.50;99.90;;;;;;4978147;28;20069;-74
2022/10/16 00:20:54;;;;;;;296.45;72.65;;;12.60;99.90;;;;;;4977866;28;20055;-73
2022/10/16 00:23:20;;;;;;;422.45;78.72;;;12.60;99.90;;;;;;4960706;28;20110;-74
2022/10/16 00:25:55;;;;;;;427.95;75.63;;;12.50;99.90;;;;;;4960364;28;20094;-73
2022/10/16 00:28:21;;;;;;;394.60;75.47;;;12.50;99.90;;;;;;4961185;28;20058;-74
2022/10/16 00:30:46;;;;;;;330.60;76.13;;;12.50;99.90;;;;;;4978032;28;20054;-74
2022/10/16 00:33:12;;;;;;;372.88;77.88;;;12.50;99.90;;;;;;4960383;28;20031;-73
2022/10/16 00:35:38;;;;;;;346.75;74.15;;;12.50;99.90;;;;;;4977923;28;20069;-73
2022/10/16 00:38:03;;;;;;;364.50;72.30;;;12.50;99.90;;;;;;4977664;28;20105;-73
2022/10/16 00:40:29;;;;;;;371.50;73.03;;;12.50;99.90;;;;;;4977508;28;20110;-73
2022/10/16 00:42:55;;;;;;;303.58;70.47;;;12.50;99.90;;;;;;4977714;28;20077;-73
2022/10/16 00:45:20;;;;;;;344.98;69.68;;;12.50;99.90;;;;;;4960412;28;20031;-73
2022/10/16 00:47:49;;;;;;;259.70;65.55;;;12.50;99.90;;;;;;4977873;28;20023;-73
2022/10/16 00:50:28;;;;;;;301.52;68.45;;;12.50;99.90;;;;;;4976601;28;20034;-73
2022/10/16 00:52:54;;;;;;;251.15;67.63;;;12.50;99.90;;;;;;4977584;28;20042;-73
2022/10/16 00:55:20;;;;;;;397.55;70.72;;;12.50;99.90;;;;;;4977434;28;20085;-74
2022/10/16 00:57:47;;;;;;;255.07;68.75;;;12.50;99.90;;;;;;4960091;28;20027;-73
2022/10/16 01:00:16;;;;;;;266.95;66.95;;;12.40;99.90;;;;;;4960068;28;20378;-73
2022/10/16 01:02:42;;;;;;;290.02;68.63;;;12.40;99.90;;;;;;4977603;28;20078;-73
2022/10/16 01:05:09;;;;;;;216.95;64.90;;;12.50;99.90;;;;;;4977277;28;20231;-74
2022/10/16 01:07:53;;;;;;;283.40;67.47;;;12.40;99.90;;;;;;4977420;28;20027;-74
2022/10/16 01:10:44;;;;;;;377.92;66.30;;;12.40;99.90;;;;;;4959956;28;20027;-73
2022/10/16 01:13:38;;;;;;;167.52;63.17;;;12.40;99.90;;;;;;4977232;28;20034;-74
2022/10/16 01:16:45;;;;;;;278.73;69.50;;;12.40;99.90;;;;;;4977161;28;20050;-73
2022/10/16 01:19:22;;;;;;;334.45;68.10;;;12.50;99.90;;;;;;4956430;28;20041;-73
2022/10/16 01:21:50;;;;;;;314.60;69.07;;;12.50;99.90;;;;;;4960504;28;20031;-73
2022/10/16 01:24:43;;;;;;;274.83;70.87;;;12.40;99.90;;;;;;4977057;28;20033;-73
2022/10/16 01:27:29;;;;;;;238.68;69.20;;;12.40;99.90;;;;;;4976896;28;20042;-73
2022/10/16 01:30:04;;;;;;;244.05;69.10;;;12.50;99.90;;;;;;4960100;28;20105;-73
2022/10/16 01:32:37;;;;;;;234.45;70.22;;;12.50;99.90;;;;;;4976907;28;20054;-73
2022/10/16 01:35:12;;;;;;;265.52;69.88;;;12.50;99.90;;;;;;4972864;28;20054;-73
2022/10/16 01:38:17;;;;;;;207.50;67.28;;;12.40;99.90;;;;;;4976491;28;20420;-73
2022/10/16 01:40:49;;;;;;;197.15;67.60;;;12.40;99.90;;;;;;4975531;28;20019;-73
2022/10/16 01:43:40;;;;;;;203.98;70.65;;;12.40;99.90;;;;;;4976992;28;20107;-73
2022/10/16 01:46:07;;;;;;;227.85;65.97;;;12.50;99.90;;;;;;4974524;28;20097;-74
2022/10/16 01:48:35;;;;;;;206.38;64.10;;;12.40;99.90;;;;;;4976286;28;20474;-73
2022/10/16 01:51:08;;;;;;;165.75;63.15;;;12.50;99.90;;;;;;4975299;28;20031;-73
2022/10/16 01:53:35;;;;;;;195.63;63.53;;;12.40;99.90;;;;;;4975984;28;20058;-74
2022/10/16 01:56:03;;;;;;;187.60;62.33;;;12.40;99.90;;;;;;4976221;28;20101;-74
2022/10/16 01:58:34;;;;;;;174.77;63.10;;;12.40;99.90;;;;;;4975391;28;20450;-74
2022/10/16 02:01:01;;;;;;;152.45;62.97;;;12.40;99.90;;;;;;4976261;28;20269;-73
2022/10/16 02:03:27;;;;;;;190.02;65.22;;;12.50;99.90;;;;;;4976585;28;20073;-74
2022/10/16 02:05:56;;;;;;;176.23;63.80;;;12.50;99.90;;;;;;4974889;28;20041;-74
2022/10/16 02:08:25;;;;;;;181.48;63.45;;;12.40;99.90;;;;;;4974956;28;20038;-73
2022/10/16 02:10:51;;;;;;;;;;;12.40;99.90;;;;;;4975321;28;20031;-73
2022/10/16 02:13:34;;;;;;;166.88;62.47;;;12.50;99.90;;;;;;4974984;28;19996;-73
2022/10/16 02:15:59;;;;;;;163.23;60.45;;;12.50;99.90;;;;;;4974806;28;20027;-74
2022/10/16 02:18:29;;;;;;;157.30;63.47;;;12.40;99.90;;;;;;4975706;28;20038;-74
2022/10/16 02:20:57;;;;;;;;;;;12.50;99.90;;;;;;4975092;28;20022;-74
2022/10/16 02:24:21;;;;;;;148.27;60.88;;;12.50;99.90;;;;;;4974626;28;20289;-74
2022/10/16 02:27:13;;;;;;;188.68;63.70;;;12.50;99.90;;;;;;4955751;28;20039;-74
2022/10/16 02:29:44;;;;;;;212.27;66.45;;;12.50;99.90;;;;;;4975580;28;20097;-74
2022/10/16 02:32:15;;;;;;;195.13;64.22;;;12.50;99.90;;;;;;4975835;28;20026;-73
2022/10/16 02:34:41;;;;;;;236.10;66.40;;;12.50;99.90;;;;;;4974168;28;20549;-73
2022/10/16 02:37:08;;;;;;;243.95;64.90;;;12.50;99.90;;;;;;4974383;28;20130;-74
2022/10/16 02:39:34;;;;;;;162.38;60.83;;;12.50;99.90;;;;;;4975685;28;20077;-73
2022/10/16 02:42:00;;;;;;;180.82;62.92;;;12.40;99.90;;;;;;4974277;28;20031;-73
2022/10/16 02:44:26;;;;;;;192.05;64.72;;;12.40;99.90;;;;;;4974428;28;20033;-73
2022/10/16 02:46:51;;;;;;;220.18;62.30;;;12.40;99.90;;;;;;4975476;28;20034;-73
2022/10/16 02:49:17;;;;;;;157.57;62.03;;;12.40;99.90;;;;;;4974160;28;20364;-73
2022/10/16 02:51:43;;;;;;;222.88;61.20;;;12.40;99.90;;;;;;4975591;28;20023;-73
2022/10/16 02:54:09;;;;;;;179.38;61.25;;;12.40;99.90;;;;;;4974119;28;20030;-73
2022/10/16 02:56:34;;;;;;;224.50;60.50;;;12.30;99.90;;;;;;4974121;28;20030;-74
2022/10/16 02:59:00;;;;;;;181.65;62.28;;;12.30;99.90;;;;;;4975309;28;20023;-74
2022/10/16 03:01:26;;;;;;;290.45;61.28;;;12.30;99.90;;;;;;4975270;28;20518;-74
2022/10/16 03:03:51;;;;;;;186.70;62.67;;;12.30;99.90;;;;;;4974013;28;20039;-74
2022/10/16 03:06:17;;;;;;;207.30;63.15;;;12.30;99.90;;;;;;4973891;28;20034;-74
2022/10/16 03:08:43;;;;;;;267.02;64.88;;;12.20;99.90;;;;;;4974181;28;20058;-74
2022/10/16 03:11:08;;;;;;;189.82;62.70;;;12.20;99.90;;;;;;4973962;28;20383;-73
2022/10/16 03:13:34;;;;;;;176.55;63.70;;;12.20;99.90;;;;;;4973589;28;20023;-73
2022/10/16 03:15:59;;;;;;;188.50;64.45;;;12.20;99.90;;;;;;4974066;28;20101;-73
2022/10/16 03:18:25;;;;;;;209.35;61.33;;;12.20;99.90;;;;;;4975043;28;20030;-73
2022/10/16 03:20:51;;;;;;;187.85;62.85;;;12.20;99.90;;;;;;4975559;28;20529;-73
2022/10/16 03:23:16;;;;;;;200.55;59.85;;;12.20;99.90;;;;;;4974320;28;20374;-74
2022/10/16 03:25:42;;;;;;;150.10;59.80;;;12.20;99.90;;;;;;4974639;28;20035;-73
2022/10/16 03:28:08;;;;;;;202.82;58.80;;;12.20;99.90;;;;;;4975294;28;20208;-73
2022/10/16 03:30:33;;;;;;;168.25;58.83;;;12.20;99.90;;;;;;4974997;28;20076;-73
2022/10/16 03:32:59;;;;;;;157.73;59.78;;;12.20;99.90;;;;;;4975000;28;20030;-73
2022/10/16 03:35:25;;;;;;;188.82;59.35;;;12.20;99.90;;;;;;4974649;28;20042;-73
2022/10/16 03:37:51;;;;;;;148.38;57.25;;;12.20;99.90;;;;;;4975073;28;20031;-73
2022/10/16 03:40:17;;;;;;;169.00;58.15;;;12.20;99.90;;;;;;4957745;28;20030;-74
2022/10/16 03:42:43;;;;;;;129.77;53.78;;;12.20;99.90;;;;;;4974789;28;20031;-73
2022/10/16 03:45:10;;;;;;;146.65;50.33;;;12.20;99.90;;;;;;4957372;28;20035;-74
2022/10/16 03:47:36;;;;;;;112.13;53.40;;;12.20;99.90;;;;;;4957479;28;20027;-74
2022/10/16 03:50:02;;;;;;;115.57;53.45;;;12.10;99.90;;;;;;4974998;28;20078;-73
2022/10/16 03:52:27;;;;;;;109.68;50.10;;;12.20;99.90;;;;;;4957367;28;20029;-73
2022/10/16 03:54:53;;;;;;;101.40;48.85;;;12.10;99.90;;;;;;4957488;28;20027;-74
2022/10/16 03:57:20;;;;;;;104.68;47.85;;;12.20;99.90;;;;;;4974953;28;20419;-74
2022/10/16 03:59:46;;;;;;;102.72;48.40;;;12.20;99.90;;;;;;4957633;28;20502;-73
2022/10/16 04:02:12;;;;;;;96.97;46.83;;;12.20;99.90;;;;;;4974556;28;20029;-74
2022/10/16 04:04:37;;;;;;;90.57;46.58;;;12.20;99.90;;;;;;4974374;28;20035;-74
2022/10/16 04:07:03;;;;;;;98.63;47.20;;;12.20;99.90;;;;;;4974547;28;20042;-73
2022/10/16 04:09:29;;;;;;;96.15;45.75;;;12.20;99.90;;;;;;4974567;28;20463;-73
2022/10/16 04:11:54;;;;;;;103.53;45.78;;;12.20;99.90;;;;;;4957344;28;20030;-73
2022/10/16 04:14:20;;;;;;;89.38;45.97;;;12.20;99.90;;;;;;4957581;28;20463;-73
2022/10/16 04:16:45;;;;;;;89.07;45.97;;;12.20;99.90;;;;;;4974798;28;20086;-74
2022/10/16 04:19:11;;;;;;;92.68;48.03;;;12.20;99.90;;;;;;4957196;28;20110;-74
2022/10/16 04:21:37;;;;;;;92.43;44.50;;;12.20;99.90;;;;;;4974422;28;20114;-74
2022/10/16 04:24:03;;;;;;;106.63;47.58;;;12.20;99.90;;;;;;4957876;28;20130;-73
2022/10/16 04:26:29;;;;;;;98.45;43.90;;;12.20;99.90;;;;;;4977948;28;20035;-74
2022/10/16 04:28:55;;;;;;;95.88;45.00;;;12.10;99.90;;;;;;4978125;28;20026;-74
2022/10/16 04:31:21;;;;;;;103.60;44.95;;;12.00;99.90;;;;;;4977993;28;20022;-73
2022/10/16 04:33:47;;;;;;;105.32;43.95;;;12.10;99.90;;;;;;4963757;28;20057;-74
2022/10/16 04:36:13;;;;;;;129.10;47.25;;;12.10;99.90;;;;;;4976606;28;20035;-73
2022/10/16 04:38:39;;;;;;;92.03;44.50;;;12.10;99.90;;;;;;4977917;28;20039;-73
2022/10/16 04:41:06;;;;;;;124.15;45.28;;;12.10;99.90;;;;;;4977864;28;20125;-74
2022/10/16 04:43:33;;;;;;;126.10;44.90;;;12.10;99.90;;;;;;4976457;28;20023;-73
2022/10/16 04:45:59;;;;;;;106.70;42.30;;;12.00;99.90;;;;;;4976302;28;20490;-73
2022/10/16 04:48:24;;;;;;;103.10;43.00;;;12.00;99.90;;;;;;4976392;28;20033;-73
2022/10/16 04:50:50;;;;;;;136.35;43.33;;;12.00;99.90;;;;;;4977385;28;20077;-74
2022/10/16 04:53:16;;;;;;;83.50;40.15;;;12.00;99.90;;;;;;4976394;28;20031;-74
2022/10/16 04:55:42;;;;;;;86.47;40.55;;;12.00;99.90;;;;;;4976531;28;20034;-74
2022/10/16 04:58:08;;;;;;;128.45;40.90;;;12.00;99.90;;;;;;4977221;28;20038;-74
2022/10/16 05:00:34;;;;;;;138.52;39.00;;;12.00;99.90;;;;;;4975868;28;20023;-74
2022/10/16 05:03:00;;;;;;;133.20;38.38;;;11.90;99.90;;;;;;4977298;28;20039;-74
2022/10/16 05:05:27;;;;;;;96.63;38.90;;;11.90;99.90;;;;;;4976329;28;20038;-73
2022/10/16 05:07:53;;;;;;;75.80;38.33;;;11.90;99.90;;;;;;4976609;28;20370;-74
2022/10/16 05:10:19;;;;;;;83.00;38.60;;;11.80;99.90;;;;;;4976997;28;20031;-74
2022/10/16 05:12:46;;;;;;;85.32;37.30;;;11.90;99.90;;;;;;4975959;28;20390;-74
2022/10/16 05:15:12;;;;;;;79.25;38.03;;;11.90;99.90;;;;;;4977941;28;20089;-73
2022/10/16 05:17:38;;;;;;;104.07;38.20;;;11.90;99.90;;;;;;4977226;28;20462;-74
2022/10/16 05:20:04;;;;;;;103.63;36.60;;;11.90;99.90;;;;;;4977284;28;20078;-73
2022/10/16 05:22:30;;;;;;;105.53;35.78;;;11.90;99.90;;;;;;4975852;28;20027;-74
2022/10/16 05:24:55;;;;;;;116.82;37.55;;;11.80;99.90;;;;;;4975758;28;20030;-74
2022/10/16 05:27:21;;;;;;;97.97;36.25;;;11.90;99.90;;;;;;4976994;28;20039;-74
2022/10/16 05:29:48;;;;;;;106.63;38.60;;;11.80;99.90;;;;;;4975666;28;20031;-74
2022/10/16 05:32:18;;;;;;;125.47;38.45;;;11.90;99.90;;;;;;4976589;28;20490;-74
2022/10/16 05:34:44;;;;;;;89.20;37.05;;;11.80;99.90;;;;;;4975296;28;20073;-74
2022/10/16 05:37:11;;;;;;;158.75;38.53;;;11.80;99.90;;;;;;4976177;28;20035;-74
2022/10/16 05:39:37;;;;;;;99.28;32.92;;;11.80;99.90;;;;;;4976828;28;20023;-75
2022/10/16 05:42:03;;;;;;;167.80;35.53;;;11.70;99.90;;;;;;4976750;28;20034;-75
2022/10/16 05:44:29;;;;;;;159.35;34.47;;;11.60;99.90;;;;;;4975541;28;20094;-75
2022/10/16 05:46:54;;;;;;;113.65;35.72;;;11.60;99.90;;;;;;4976189;28;20435;-75
2022/10/16 05:49:20;;;;;;;166.57;37.88;;;11.60;99.90;;;;;;4976593;28;20027;-75
2022/10/16 05:51:46;;;;;;;141.73;38.90;;;11.60;99.90;;;;;;4975298;28;20109;-75
2022/10/16 05:54:11;;;;;;;193.15;37.95;;;11.60;99.90;;;;;;4975454;28;20034;-76
2022/10/16 05:56:37;;;;;;;145.05;38.30;;;11.60;99.90;;;;;;4975261;28;20482;-75
2022/10/16 05:59:04;;;;;;;140.98;37.67;;;11.60;99.90;;;;;;4974792;28;20023;-76
2022/10/16 06:01:30;;;;;;;81.97;36.63;;;11.60;99.90;;;;;;4976371;28;20038;-75
2022/10/16 06:03:56;;;;;;;85.53;36.63;;;11.70;99.90;;;;;;4976337;28;20081;-75
2022/10/16 06:06:25;;;;;;;106.78;35.35;;;11.70;99.90;;;;;;4976285;28;20110;-75
2022/10/16 06:08:52;;;;;;;105.18;34.83;;;11.70;99.90;;;;;;4976385;28;20023;-75
2022/10/16 06:11:25;;;;;;;95.47;35.20;;;11.70;99.90;;;;;;4975336;28;20031;-75
2022/10/16 06:13:52;;;;;;;113.65;37.95;;;11.70;99.90;;;;;;4976099;28;20491;-59
2022/10/16 06:16:18;;;;;;;78.38;34.22;;;11.80;99.90;;;;;;4976130;28;20039;-62
2022/10/16 06:18:45;;;;;;;85.88;33.95;;;11.80;99.90;;;;;;4975783;28;20041;-78
2022/10/16 06:21:24;;;;;;;67.30;32.97;;;11.80;99.90;;;;;;4975692;28;20093;-77
2022/10/16 06:23:51;;;;;;;92.82;32.38;;;11.90;99.90;;;;;;4976203;28;20066;-79
2022/10/16 06:26:19;;;;;;;84.78;32.00;;;11.80;99.90;;;;;;4975838;28;20093;-78
2022/10/16 06:28:46;;;;;;;84.93;32.83;;;11.80;99.90;;;;;;4974698;28;20031;-79
2022/10/16 06:31:13;;;;;;;96.40;32.30;;;11.80;99.90;;;;;;4974896;28;20034;-80
2022/10/16 06:33:39;;;;;;;68.63;32.85;;;11.80;99.90;;;;;;4974128;28;20054;-77
2022/10/16 06:36:06;;;;;;;70.32;32.03;;;11.80;99.90;;;;;;4974626;28;20030;-78
2022/10/16 06:38:32;;;;;;;56.80;32.03;;;11.80;99.90;;;;;;4975877;28;20023;-78
2022/10/16 06:40:58;;;;;;;63.97;31.63;;;11.90;99.90;;;;;;4974700;28;20034;-78
2022/10/16 06:43:24;;;;;;;100.35;33.80;;;11.90;99.90;;;;;;4975669;28;20023;-79
2022/10/16 06:45:54;;;;;;;89.45;32.88;;;11.90;99.90;;;;;;4975214;28;20059;-79
2022/10/16 06:48:20;;;;;;;87.40;35.75;;;11.90;99.90;;;;;;4973571;28;20027;-78
2022/10/16 06:51:02;;;;;;;69.70;34.35;;;11.80;99.90;;;;;;4975576;28;20030;-78
2022/10/16 06:53:30;;;;;;;87.45;34.35;;;11.90;99.90;;;;;;4974245;28;20023;-77
2022/10/16 06:55:56;;;;;;;79.25;35.85;;;11.90;99.90;;;;;;4975582;28;20031;-79
2022/10/16 06:58:22;;;;;;;79.25;37.33;;;11.90;99.90;;;;;;4974166;28;20522;-79
2022/10/16 07:00:48;;;;;;;99.65;36.47;;;12.00;99.90;;;;;;4975459;28;20031;-79
2022/10/16 07:03:15;;;;;;;69.35;37.88;;;12.00;99.90;;;;;;4974127;28;20368;-78
2022/10/16 07:05:44;;;;;;;67.80;37.05;;;12.00;99.90;;;;;;4975207;28;20042;-79
2022/10/16 07:08:09;;;;;;;;;;;12.10;99.90;;;;;;4975623;28;20027;-79
2022/10/16 07:10:35;;;;;;;89.07;35.75;;;12.10;99.90;;;;;;4974061;28;19913;-58
2022/10/16 07:13:01;;;;;;;72.40;38.40;;;12.20;99.90;;;;;;4975499;28;20029;-58
2022/10/16 07:15:27;;;;;;;69.00;36.78;;;12.30;99.90;;;;;;4975273;28;20069;-70
2022/10/16 07:17:53;;;;;;;73.38;37.95;;;12.30;99.90;;;;;;4973812;28;20023;-69
2022/10/16 07:20:20;;;;;;;66.65;37.40;;;12.40;99.90;;;;;;4974801;28;20035;-70
2022/10/16 07:22:45;;;;;;;68.57;37.42;;;12.50;99.90;;;;;;4973724;28;20035;-69
2022/10/16 07:25:11;;;;;;;61.22;35.67;;;12.50;99.90;;;;;;4973312;28;20033;-70
2022/10/16 07:27:37;;;;;;;63.42;35.28;;;12.60;99.90;;;;;;4974736;28;20023;-70
2022/10/16 07:30:03;;;;;;;72.00;36.03;;;12.60;99.90;;;;;;4973708;28;20061;-59
2022/10/16 07:32:29;;;;;;;65.90;35.25;;;12.50;99.90;;;;;;4975081;28;20027;-58
2022/10/16 07:34:55;;;;;;;60.42;34.47;;;12.50;99.90;;;;;;4974936;28;20535;-74
2022/10/16 07:37:21;;;;;;;102.85;35.72;;;12.50;99.90;;;;;;4957529;28;20031;-74
2022/10/16 07:39:47;;;;;;;101.20;37.13;;;12.40;99.90;;;;;;4957519;28;20054;-75
2022/10/16 07:42:13;;;;;;;91.95;37.65;;;12.30;99.90;;;;;;4975205;28;20379;-75
2022/10/16 07:44:39;;;;;;;93.25;37.28;;;12.30;99.90;;;;;;4957671;28;20585;-76
2022/10/16 07:47:05;;;;;;;103.45;39.65;;;12.30;99.90;;;;;;4957408;28;20073;-77
2022/10/16 07:49:31;;;;;;;109.20;38.15;;;12.30;99.90;;;;;;4975067;28;20029;-79
2022/10/16 07:51:57;;;;;;;102.38;38.35;;;12.40;99.90;;;;;;4959364;28;20382;-88
2022/10/16 07:54:22;;;;;;;127.03;39.15;;;12.30;99.90;;;;;;4960632;28;20027;-90
2022/10/16 07:56:48;;;;;;;99.13;37.60;;;12.30;99.90;;;;;;4977029;28;20034;-88
2022/10/16 07:59:14;;;;;;;84.55;38.00;;;12.30;99.90;;;;;;4959275;28;20438;-91
2022/10/16 08:01:40;;;;;;;84.43;39.33;;;12.30;99.90;;;;;;4964002;28;20023;-81
2022/10/16 08:04:05;;;;;;;94.95;39.67;;;12.30;99.90;;;;;;4980236;28;20027;-80
2022/10/16 08:06:36;;;;;;;84.55;38.38;;;12.40;99.90;;;;;;4962293;28;20038;-82
2022/10/16 08:09:03;;;;;;;72.28;38.83;;;12.40;99.90;;;;;;4979651;28;20019;-90
2022/10/16 08:11:29;;;;;;;65.18;39.17;;;12.50;99.90;;;;;;4962011;28;20034;-90
2022/10/16 08:13:55;;;;;;;73.43;37.55;;;12.40;99.90;;;;;;4962950;28;20070;-78
2022/10/16 08:16:21;;;;;;;78.88;38.20;;;12.50;99.90;;;;;;4962065;28;20081;-86
2022/10/16 08:18:47;;;;;;;72.28;38.25;;;12.50;99.90;;;;;;4962226;28;20039;-79
2022/10/16 08:21:19;;;;;;;63.80;38.08;;;12.60;99.90;;;;;;4961167;28;20467;-80
2022/10/16 08:23:45;;;;;;;65.07;37.53;;;12.70;99.90;;;;;;4978893;28;20022;-83
2022/10/16 08:26:11;;;;;;;58.95;34.22;;;12.80;99.90;;;;;;4961147;28;20035;-80
2022/10/16 08:28:37;;;;;;;55.25;33.72;;;12.70;99.90;;;;;;4961307;28;20118;-85
2022/10/16 08:31:08;;;;;;;51.35;34.25;;;12.70;99.90;;;;;;4962608;28;20459;-80
2022/10/16 08:33:35;;;;;;;70.43;35.08;;;12.60;99.90;;;;;;4963660;28;20407;-82
2022/10/16 08:36:01;;;;;;;61.85;36.72;;;12.70;99.90;;;;;;4980940;28;20031;-86
2022/10/16 08:38:27;;;;;;;56.03;35.30;;;12.70;99.90;;;;;;4980170;28;20027;-78
2022/10/16 08:41:15;;;;;;;57.47;36.28;;;12.70;99.90;;;;;;4977203;28;20482;-78
2022/10/16 08:44:06;;;;;;;62.13;37.53;;;12.80;99.90;;;;;;4977450;28;20031;-82
2022/10/16 08:46:47;;;;;;;66.30;37.10;;;12.80;99.90;;;;;;4968690;28;20035;-80
2022/10/16 08:49:13;;;;;;;77.07;37.45;;;12.80;99.90;;;;;;4976838;28;20101;-80
2022/10/16 08:51:40;;;;;;;63.55;38.20;;;12.80;99.90;;;;;;4978341;28;20038;-85
2022/10/16 08:54:30;;;;;;;69.00;38.83;;;12.90;99.90;;;;;;4977282;28;20359;-85
2022/10/16 08:57:00;;;;;;;63.55;38.92;;;13.00;99.90;;;;;;4977017;28;20054;-87
2022/10/16 08:59:26;;;;;;;69.05;37.20;;;13.10;99.90;;;;;;4978068;28;20138;-81
2022/10/16 09:01:53;;;;;;;65.57;37.25;;;13.10;99.90;;;;;;4977869;28;20062;-79
2022/10/16 09:04:52;;;;;;;63.40;37.17;;;13.10;99.90;;;;;;4976651;28;20027;-81
2022/10/16 09:07:20;;;;;;;60.13;37.67;;;13.10;99.90;;;;;;4977440;28;20042;-83
2022/10/16 09:09:59;;;;;;;60.03;38.40;;;13.20;99.90;;;;;;4976666;28;20066;-78
2022/10/16 09:12:53;;;;;;;59.90;37.83;;;13.20;99.90;;;;;;4976474;28;20041;-79
2022/10/16 09:15:25;;;;;;;60.58;38.03;;;13.30;99.90;;;;;;4968322;28;20039;-83
2022/10/16 09:17:51;;;;;;;60.97;37.70;;;13.30;99.90;;;;;;4976753;28;20053;-82
2022/10/16 09:20:37;;;;;;;56.13;36.13;;;13.40;99.90;;;;;;4978004;28;20101;-78
2022/10/16 09:23:19;;;;;;;58.60;38.20;;;13.40;99.90;;;;;;4977603;28;20031;-80
2022/10/16 09:25:48;;;;;;;59.92;37.67;;;13.40;99.90;;;;;;4976969;28;20031;-79
2022/10/16 09:28:14;;;;;;;;;;;13.40;99.90;;;;;;4976367;28;20027;-79
2022/10/16 09:30:40;;;;;;;56.08;36.75;;;13.40;99.90;;;;;;4977050;28;19933;-79
2022/10/16 09:33:07;;;;;;;55.90;35.95;;;13.40;99.90;;;;;;4975941;28;20487;-86
2022/10/16 09:35:43;;;;;;;59.20;38.88;;;13.40;99.90;;;;;;4960031;28;20129;-76
2022/10/16 09:38:21;;;;;;;59.22;37.53;;;13.40;99.90;;;;;;4976789;28;20498;-74
2022/10/16 09:40:46;;;;;;;63.03;38.47;;;13.50;99.90;;;;;;4959468;28;20023;-75
2022/10/16 09:43:21;;;;;;;58.58;36.20;;;13.40;99.90;;;;;;4959815;28;20026;-75
2022/10/16 09:45:55;;;;;;;59.17;37.13;;;13.40;99.90;;;;;;4959123;28;20391;-75
2022/10/16 09:48:21;;;;;;;54.70;35.83;;;13.40;99.90;;;;;;4959259;28;20062;-74
2022/10/16 09:51:00;;;;;;;54.22;35.42;;;13.50;99.90;;;;;;4976526;28;20063;-75
2022/10/16 09:53:44;;;;;;;55.50;35.38;;;13.60;99.90;;;;;;4959222;28;20026;-76
2022/10/16 09:56:33;;;;;;;53.88;35.47;;;13.70;99.90;;;;;;4958773;28;20049;-76
2022/10/16 09:59:00;;;;;;;;;;;13.80;99.90;;;;;;4959520;28;20111;-76
2022/10/16 10:01:50;;;;;;;48.40;33.20;;;13.90;99.90;;;;;;4958904;28;20298;-76
2022/10/16 10:04:18;;;;;;;50.80;33.20;;;14.00;99.90;;;;;;4955932;28;20073;-77
2022/10/16 10:06:55;;;;;;;45.85;32.42;;;14.00;99.90;;;;;;4958750;28;20038;-76
2022/10/16 10:09:38;;;;;;;48.03;33.78;;;14.10;99.90;;;;;;4958883;28;20486;-76
2022/10/16 10:12:16;;;;;;;50.13;33.45;;;14.20;99.90;;;;;;4976314;28;20435;-76
2022/10/16 10:14:48;;;;;;;49.50;33.75;;;14.20;99.90;;;;;;4958966;28;20054;-76
2022/10/16 10:17:27;;;;;;;51.38;34.80;;;14.30;99.90;;;;;;4976147;28;20034;-77
2022/10/16 10:20:16;;;;;;;52.92;35.35;;;14.20;99.90;;;;;;4958652;28;20510;-76
2022/10/16 10:22:45;;;;;;;52.05;35.33;;;14.20;99.90;;;;;;4958667;28;20489;-76
2022/10/16 10:25:11;;;;;;;50.15;33.75;;;14.10;99.90;;;;;;4975656;28;20030;-76
2022/10/16 10:27:45;;;;;;;48.10;33.70;;;14.00;99.90;;;;;;4958743;28;20090;-76
2022/10/16 10:30:23;;;;;;;49.00;33.67;;;14.10;99.90;;;;;;4958756;28;20031;-76
2022/10/16 10:33:14;;;;;;;44.37;30.97;;;14.10;99.90;;;;;;4958830;28;20403;-76
2022/10/16 10:35:40;;;;;;;45.67;32.28;;;14.10;99.90;;;;;;4939091;29;20763;-76
2022/10/16 10:38:30;;;;;;;48.00;33.17;;;14.10;99.90;;;;;;4938853;29;20031;-76
2022/10/16 10:41:14;;;;;;;49.85;32.92;;;14.00;99.90;;;;;;4939146;29;20031;-76
2022/10/16 10:43:45;;;;;;;49.50;33.72;;;14.20;99.90;;;;;;4938999;29;20038;-76
2022/10/16 10:46:49;;;;;;;49.92;32.33;;;14.30;99.90;;;;;;4938801;29;20074;-76
2022/10/16 10:49:41;;;;;;;52.58;35.38;;;14.40;99.90;;;;;;4938273;29;20098;-76
2022/10/16 10:52:52;;;;;;;53.78;36.53;;;14.30;99.90;;;;;;4938734;29;20084;-75
2022/10/16 10:55:47;;;;;;;52.67;34.85;;;14.20;99.90;;;;;;4939657;29;20197;-77
2022/10/16 10:58:31;;;;;;;56.13;36.78;;;14.10;99.90;;;;;;4948144;29;20043;-77
2022/10/16 11:00:57;;;;;;;59.92;38.47;;;14.10;99.90;;;;;;4938921;29;20019;-76
2022/10/16 11:04:01;;;;;;;54.80;37.25;;;14.10;99.90;;;;;;4938834;29;20058;-76
2022/10/16 11:06:34;;;;;;;56.92;36.58;;;14.20;99.90;;;;;;4938682;29;20066;-76
2022/10/16 11:09:09;;;;;;;53.20;35.90;;;14.10;99.90;;;;;;4955656;29;20039;-76
2022/10/16 11:12:13;;;;;;;53.42;34.70;;;14.20;99.90;;;;;;4939021;29;20118;-78
2022/10/16 11:15:03;;;;;;;49.72;34.15;;;14.30;99.90;;;;;;4938624;29;20039;-75
2022/10/16 11:17:39;;;;;;;52.30;35.92;;;14.20;99.90;;;;;;4938561;29;20111;-75
2022/10/16 11:20:22;;;;;;;60.25;38.00;;;14.20;99.90;;;;;;4955763;29;20114;-75
2022/10/16 11:23:02;;;;;;;57.25;36.45;;;14.20;99.90;;;;;;4938538;29;20372;-75
2022/10/16 11:25:30;;;;;;;50.92;35.08;;;14.30;99.90;;;;;;4955611;29;20129;-76
2022/10/16 11:28:01;;;;;;;55.45;36.22;;;14.30;99.90;;;;;;4938453;29;20027;-75
2022/10/16 11:30:42;;;;;;;50.97;36.00;;;14.40;99.90;;;;;;4939060;29;20383;-75
2022/10/16 11:33:08;;;;;;;53.20;35.95;;;14.40;99.90;;;;;;4956390;28;20035;-62
2022/10/16 11:35:40;;;;;;;50.78;35.65;;;14.50;99.90;;;;;;4963340;28;20023;-73
2022/10/16 11:38:32;;;;;;;56.17;35.78;;;14.60;99.90;;;;;;4963789;28;20574;-75
2022/10/16 11:41:20;;;;;;;52.58;34.63;;;14.60;99.90;;;;;;4963456;28;20103;-74
2022/10/16 11:44:09;;;;;;;55.08;37.00;;;14.50;99.90;;;;;;4963921;28;20030;-79
2022/10/16 11:46:38;;;;;;;53.03;37.08;;;14.60;99.90;;;;;;4963805;28;20181;-76
2022/10/16 11:49:13;;;;;;;51.58;36.25;;;14.70;99.90;;;;;;4981217;28;20104;-76
2022/10/16 11:51:51;;;;;;;56.08;37.13;;;14.70;99.90;;;;;;4964020;28;20035;-77
2022/10/16 11:54:48;;;;;;;58.30;38.38;;;14.60;99.90;;;;;;4981767;28;20158;-76
2022/10/16 11:57:31;;;;;;;55.08;37.38;;;14.70;99.90;;;;;;4981086;28;20061;-76
2022/10/16 12:00:32;;;;;;;54.70;38.47;;;14.80;99.90;;;;;;4980935;28;20088;-77
2022/10/16 12:03:10;;;;;;;51.85;37.05;;;14.90;99.90;;;;;;4963016;28;20034;-77
2022/10/16 12:05:52;;;;;;;54.45;37.38;;;15.10;99.90;;;;;;4964047;28;20039;-77
2022/10/16 12:08:18;;;;;;;56.65;39.03;;;15.30;99.90;;;;;;4981433;28;20026;-86
2022/10/16 12:10:47;;;;;;;55.80;38.03;;;15.40;99.90;;;;;;4964265;28;20471;-79
2022/10/16 12:13:37;;;;;;;53.90;37.47;;;15.50;99.90;;;;;;4963478;28;20031;-78
2022/10/16 12:16:19;;;;;;;52.25;36.13;;;15.60;99.90;;;;;;4981175;28;20085;-83
2022/10/16 12:18:46;;;;;;;48.20;35.33;;;16.00;99.90;;;;;;4964116;28;20049;-80
2022/10/16 12:21:15;;;;;;;47.80;34.15;;;16.70;99.90;;;;;;4963521;28;20479;-77
2022/10/16 12:23:48;;;;;;;41.67;32.10;;;16.30;99.90;;;;;;4963466;28;20463;-76
2022/10/16 12:26:27;;;;;;;40.22;29.73;;;19.20;99.90;;;;;;4980974;28;20038;-77
2022/10/16 12:28:54;;;;;;;39.72;31.00;;;20.20;99.90;;;;;;4980936;28;20363;-77
2022/10/16 12:31:20;;;;;;;34.60;28.25;;;21.10;99.90;;;;;;4963689;28;20035;-77
2022/10/16 12:33:59;;;;;;;36.50;29.45;;;21.40;99.90;;;;;;4966484;28;20054;-77
2022/10/16 12:36:31;;;;;;;35.95;28.02;;;22.40;99.90;;;;;;4980281;28;20035;-77
2022/10/16 12:38:58;;;;;;;36.00;27.52;;;23.00;99.90;;;;;;4979526;28;20118;-76
2022/10/16 12:41:30;;;;;;;34.08;28.38;;;23.50;99.90;;;;;;4979483;28;20080;-76
2022/10/16 12:43:57;;;;;;;31.88;27.73;;;23.70;99.90;;;;;;4980521;28;20086;-77